Time;durP1;ratioP1;P1;durP2;ratioP2;P2;SDS_P1;SDS_P2;PMS_P1;PMS_P2;Temp;Humidity;BMP_temperature;BMP_pressure;BME280_temperature;BME280_humidity;BME280_pressure;Samples;Min_cycle;Max_cycle;Signal;HPM_P1;HPM_P2
2022/12/02 00:00:04;;;;;;;59.58;28.05;;;;;;;2.99;100.00;102571.91;1031640;28;20365;-80
2022/12/02 00:00:35;;;;;;;58.22;28.00;;;;;;;2.99;100.00;102577.16;1033242;28;20297;-80
2022/12/02 00:01:09;;;;;;;57.85;28.20;;;;;;;2.98;100.00;102575.50;1033175;28;20379;-80
2022/12/02 00:01:40;;;;;;;61.45;31.85;;;;;;;2.97;100.00;102574.66;1027662;28;20364;-80
2022/12/02 00:02:29;;;;;;;62.45;27.40;;;;;;;2.95;100.00;102575.75;1022170;29;20311;-80
2022/12/02 00:03:00;;;;;;;60.63;29.08;;;;;;;3.00;100.00;102574.41;1023619;28;21024;-80
2022/12/02 00:03:35;;;;;;;60.50;28.23;;;;;;;3.02;100.00;102572.50;1029725;28;20298;-81
2022/12/02 00:04:21;;;;;;;58.80;29.20;;;;;;;3.03;100.00;102566.28;1023183;28;20661;-80
2022/12/02 00:04:57;;;;;;;56.65;25.45;;;;;;;3.03;100.00;102570.72;1026294;28;20310;-80
2022/12/02 00:05:31;;;;;;;57.42;27.60;;;;;;;2.97;100.00;102569.38;1028547;28;20737;-80
2022/12/02 00:06:03;;;;;;;61.72;27.80;;;;;;;3.05;100.00;102560.91;1030164;28;20351;-80
2022/12/02 00:06:35;;;;;;;64.20;27.85;;;;;;;3.05;100.00;102566.16;1028528;28;20942;-80
2022/12/02 00:07:14;;;;;;;56.45;27.83;;;;;;;3.05;100.00;102561.72;1032164;28;20384;-80
2022/12/02 00:07:46;;;;;;;55.60;26.15;;;;;;;3.03;100.00;102558.38;1032095;28;20649;-80
2022/12/02 00:08:21;;;;;;;60.20;28.77;;;;;;;3.02;100.00;102559.34;1032719;28;20301;-80
2022/12/02 00:08:53;;;;;;;65.00;26.17;;;;;;;3.06;100.00;102559.94;1029625;28;20357;-80
2022/12/02 00:09:32;;;;;;;50.72;24.17;;;;;;;3.04;100.00;102557.44;1031367;28;20722;-80
2022/12/02 00:10:25;;;;;;;51.55;26.67;;;;;;;3.04;100.00;102548.69;1031791;28;20376;-80
2022/12/02 00:10:59;;;;;;;55.38;26.90;;;;;;;3.00;100.00;102552.50;1035841;28;20375;-80
2022/12/02 00:11:31;;;;;;;49.15;26.17;;;;;;;3.03;100.00;102549.66;1036359;28;20763;-80
2022/12/02 00:12:21;;;;;;;58.20;28.77;;;;;;;3.03;100.00;102553.13;1031549;28;20304;-80
2022/12/02 00:12:53;;;;;;;52.80;26.05;;;;;;;3.04;100.00;102551.31;1030557;28;20339;-80
2022/12/02 00:13:34;;;;;;;55.28;28.05;;;;;;;3.00;100.00;102557.78;1027672;28;20513;-80
2022/12/02 00:14:20;;;;;;;61.88;28.85;;;;;;;3.00;100.00;102560.41;1031809;28;20332;-80
2022/12/02 00:15:35;;;;;;;50.03;25.73;;;;;;;3.04;100.00;102556.59;1027511;28;20070;-80
2022/12/02 00:16:17;;;;;;;59.58;25.02;;;;;;;3.00;100.00;102552.50;1031912;28;20320;-80
2022/12/02 00:16:49;;;;;;;59.45;27.33;;;;;;;2.99;100.00;102556.09;1031346;28;20725;-80
2022/12/02 00:17:21;;;;;;;55.85;24.98;;;;;;;2.99;100.00;102550.84;1035848;28;20676;-80
2022/12/02 00:17:52;;;;;;;63.47;29.77;;;;;;;2.99;100.00;102551.69;1039433;28;20303;-80
2022/12/02 00:18:25;;;;;;;54.92;27.27;;;;;;;3.02;100.00;102548.00;1031527;28;20379;-80
2022/12/02 00:18:56;;;;;;;60.40;28.27;;;;;;;3.02;100.00;102546.19;1033185;28;20320;-80
2022/12/02 00:19:28;;;;;;;63.72;29.20;;;;;;;2.96;100.00;102551.09;1033931;28;20297;-80
2022/12/02 00:19:59;;;;;;;63.38;30.77;;;;;;;2.97;100.00;102550.13;1039611;28;20694;-80
2022/12/02 00:20:31;;;;;;;54.60;26.33;;;;;;;2.97;100.00;102555.41;1042084;28;20353;-80
2022/12/02 00:21:03;;;;;;;53.72;27.33;;;;;;;2.87;100.00;102549.22;1037013;28;20358;-80
2022/12/02 00:21:34;;;;;;;54.90;27.83;;;;;;;2.86;100.00;102545.75;1037849;28;20318;-80
2022/12/02 00:22:05;;;;;;;57.67;28.27;;;;;;;2.91;100.00;102548.00;1038291;28;20299;-80
2022/12/02 00:22:37;;;;;;;63.92;27.83;;;;;;;2.85;100.00;102554.59;1036001;28;20822;-80
2022/12/02 00:23:09;;;;;;;57.38;30.77;;;;;;;2.93;100.00;102548.72;1042260;28;20310;-80
2022/12/02 00:23:41;;;;;;;54.85;27.55;;;;;;;2.94;100.00;102555.66;1037830;28;20699;-80
2022/12/02 00:24:12;;;;;;;63.15;31.98;;;;;;;2.96;100.00;102546.66;1039872;28;20399;-80
2022/12/02 00:24:44;;;;;;;63.08;30.58;;;;;;;3.01;100.00;102548.91;1038572;28;20346;-80
2022/12/02 00:25:15;;;;;;;62.38;28.08;;;;;;;3.04;100.00;102546.06;1036280;28;20304;-80
2022/12/02 00:25:49;;;;;;;57.55;30.20;;;;;;;3.06;100.00;102547.59;1031596;28;20324;-80
2022/12/02 00:26:21;;;;;;;61.13;28.95;;;;;;;3.05;100.00;102545.09;1031215;28;20345;-80
2022/12/02 00:26:52;;;;;;;57.35;27.50;;;;;;;3.04;100.00;102543.44;1028403;28;20318;-80
2022/12/02 00:27:24;;;;;;;67.18;30.52;;;;;;;3.04;100.00;102543.44;1029684;28;20306;-80
2022/12/02 00:27:56;;;;;;;61.20;28.65;;;;;;;3.04;100.00;102538.16;1029763;28;20348;-80
2022/12/02 00:28:27;;;;;;;79.05;32.17;;;;;;;3.02;100.00;102540.09;1027937;28;20298;-79
2022/12/02 00:29:00;;;;;;;58.05;27.73;;;;;;;3.03;100.00;102544.41;1030536;28;20301;-79
2022/12/02 00:29:31;;;;;;;61.35;28.63;;;;;;;3.04;100.00;102544.25;1034478;28;20379;-79
2022/12/02 00:30:03;;;;;;;57.58;27.80;;;;;;;2.99;100.00;102549.03;1038627;28;20848;-79
2022/12/02 00:30:35;;;;;;;54.83;29.02;;;;;;;3.00;100.00;102547.25;1036388;28;20814;-79
2022/12/02 00:31:06;;;;;;;61.67;28.45;;;;;;;3.02;100.00;102540.09;1039964;28;20323;-79
2022/12/02 00:31:38;;;;;;;59.83;29.65;;;;;;;2.99;100.00;102548.22;1035608;28;20723;-79
2022/12/02 00:32:10;;;;;;;63.95;27.63;;;;;;;3.01;100.00;102541.88;1033648;28;20307;-80
2022/12/02 00:32:41;;;;;;;63.97;28.15;;;;;;;2.95;100.00;102538.91;1034651;28;20293;-80
2022/12/02 00:33:14;;;;;;;58.05;26.98;;;;;;;2.99;100.00;102548.22;1037183;28;20324;-79
2022/12/02 00:33:46;;;;;;;68.50;28.63;;;;;;;3.01;100.00;102543.66;1035573;28;20367;-80
2022/12/02 00:34:18;;;;;;;61.97;31.13;;;;;;;3.01;100.00;102546.28;1030861;28;20371;-80
2022/12/02 00:34:49;;;;;;;59.05;27.77;;;;;;;2.99;100.00;102535.88;1025420;28;20305;-79
2022/12/02 00:35:23;;;;;;;72.63;30.95;;;;;;;3.00;100.00;102544.63;1023376;28;20367;-80
2022/12/02 00:35:54;;;;;;;57.72;27.70;;;;;;;2.85;100.00;102545.88;1027080;28;20310;-79
2022/12/02 00:36:27;;;;;;;54.35;26.85;;;;;;;2.83;100.00;102540.72;1029060;28;20515;-80
2022/12/02 00:36:59;;;;;;;62.03;28.95;;;;;;;2.92;100.00;102542.63;1032846;28;20308;-80
2022/12/02 00:37:30;;;;;;;64.30;29.38;;;;;;;2.95;100.00;102539.72;1032159;28;20784;-79
2022/12/02 00:38:04;;;;;;;62.75;27.67;;;;;;;2.97;100.00;102543.06;1025763;28;20317;-79
2022/12/02 00:38:35;;;;;;;69.13;29.05;;;;;;;2.95;100.00;102545.00;1031220;28;20305;-80
2022/12/02 00:39:07;;;;;;;54.63;26.05;;;;;;;2.95;100.00;102541.53;1030635;28;20471;-80
2022/12/02 00:39:38;;;;;;;46.50;24.67;;;;;;;2.91;100.00;102542.75;1034039;28;20328;-79
2022/12/02 00:40:10;;;;;;;60.17;27.25;;;;;;;2.91;100.00;102537.47;1036402;28;20380;-80
2022/12/02 00:40:42;;;;;;;61.33;27.98;;;;;;;2.87;100.00;102530.78;1032829;28;20905;-79
2022/12/02 00:41:14;;;;;;;64.70;27.95;;;;;;;2.86;100.00;102534.38;1029046;28;20289;-79
2022/12/02 00:41:45;;;;;;;52.63;24.80;;;;;;;2.86;100.00;102542.28;1031069;28;20382;-79
2022/12/02 00:42:17;;;;;;;55.45;27.13;;;;;;;2.86;100.00;102539.66;1031815;28;20478;-79
2022/12/02 00:42:48;;;;;;;52.33;24.90;;;;;;;2.87;100.00;102530.78;1034058;28;20382;-80
2022/12/02 00:46:40;;;;;;;51.85;25.20;;;;;;;2.70;100.00;102535.59;1034153;28;20332;-79
2022/12/02 00:47:11;;;;;;;56.83;24.27;;;;;;;2.66;100.00;102530.72;1034452;28;20296;-79
2022/12/02 00:47:43;;;;;;;58.92;25.60;;;;;;;2.60;100.00;102528.59;1031058;28;20295;-80
2022/12/02 00:48:14;;;;;;;66.15;28.38;;;;;;;2.61;100.00;102536.34;1033553;28;20702;-80
2022/12/02 00:48:46;;;;;;;53.95;24.67;;;;;;;2.70;100.00;102532.97;1031388;28;20348;-80
2022/12/02 00:49:18;;;;;;;53.45;27.27;;;;;;;2.76;100.00;102527.25;1029776;28;20353;-79
2022/12/02 00:49:49;;;;;;;54.20;23.00;;;;;;;2.75;100.00;102528.22;1032843;28;20704;-80
2022/12/02 00:50:21;;;;;;;55.10;24.80;;;;;;;2.80;100.00;102530.47;1035482;28;20300;-79
2022/12/02 00:50:53;;;;;;;49.28;24.85;;;;;;;2.81;100.00;102531.28;1028821;28;20301;-79
2022/12/02 00:51:25;;;;;;;51.70;25.30;;;;;;;2.81;100.00;102524.25;1029433;28;20384;-80
2022/12/02 00:51:56;;;;;;;55.95;26.65;;;;;;;2.82;100.00;102525.06;1030873;28;20317;-79
2022/12/02 00:52:28;;;;;;;51.38;24.27;;;;;;;2.83;100.00;102521.47;1032571;28;20289;-79
2022/12/02 00:53:00;;;;;;;53.13;23.27;;;;;;;2.78;100.00;102533.22;1035865;28;20332;-79
2022/12/02 00:53:31;;;;;;;49.83;22.77;;;;;;;2.78;100.00;102530.59;1027508;28;20815;-79
2022/12/02 00:54:04;;;;;;;54.65;25.20;;;;;;;2.78;100.00;102532.38;1023458;28;20306;-80
2022/12/02 00:54:35;;;;;;;53.03;23.58;;;;;;;2.78;100.00;102532.38;1026172;28;20326;-80
2022/12/02 00:55:08;;;;;;;48.92;22.42;;;;;;;2.79;100.00;102534.88;1023063;28;20860;-80
2022/12/02 00:55:39;;;;;;;65.93;25.35;;;;;;;2.78;100.00;102530.59;1026691;28;20294;-79
2022/12/02 00:56:11;;;;;;;47.17;23.75;;;;;;;2.75;100.00;102528.22;1023747;28;20345;-80
2022/12/02 00:56:42;;;;;;;51.20;24.10;;;;;;;2.67;100.00;102530.59;1027938;28;21021;-79
2022/12/02 00:57:14;;;;;;;51.20;25.13;;;;;;;2.74;100.00;102531.78;1033407;28;20332;-79
2022/12/02 00:57:46;;;;;;;53.80;23.77;;;;;;;2.77;100.00;102528.91;1035292;28;20667;-79
2022/12/02 00:58:18;;;;;;;53.08;23.25;;;;;;;2.83;100.00;102529.38;1033219;28;20377;-79
2022/12/02 00:58:50;;;;;;;53.50;24.65;;;;;;;2.69;100.00;102538.38;1029119;28;20305;-79
2022/12/02 00:59:22;;;;;;;44.83;22.45;;;;;;;2.77;100.00;102531.53;1030876;28;20308;-79
2022/12/02 00:59:53;;;;;;;49.50;22.58;;;;;;;2.81;100.00;102533.94;1035196;28;20300;-80
2022/12/02 01:00:25;;;;;;;41.95;22.05;;;;;;;2.78;100.00;102527.97;1029313;28;20667;-80
2022/12/02 01:00:56;;;;;;;49.72;24.02;;;;;;;2.79;100.00;102532.25;1025040;28;20294;-79
2022/12/02 01:01:28;;;;;;;53.33;25.00;;;;;;;2.80;100.00;102541.00;1031628;28;20380;-80
2022/12/02 01:02:00;;;;;;;54.05;23.95;;;;;;;2.74;100.00;102525.69;1028748;28;20305;-79
2022/12/02 01:02:32;;;;;;;47.08;21.80;;;;;;;2.70;100.00;102525.09;1034068;28;20304;-80
2022/12/02 01:03:03;;;;;;;43.22;19.75;;;;;;;2.73;100.00;102530.09;1036247;28;20307;-79
2022/12/02 01:03:35;;;;;;;47.53;20.65;;;;;;;2.72;100.00;102527.59;1039369;28;20292;-80
2022/12/02 01:04:13;;;;;;;47.95;22.92;;;;;;;2.68;100.00;102521.75;1036561;28;20308;-79
2022/12/02 01:04:44;;;;;;;49.75;21.00;;;;;;;2.70;100.00;102529.50;1032949;28;20310;-79
2022/12/02 01:05:16;;;;;;;54.58;22.42;;;;;;;2.69;100.00;102522.56;1030988;28;20328;-79
2022/12/02 01:05:47;;;;;;;61.60;23.08;;;;;;;2.65;100.00;102524.63;1025874;28;20337;-80
2022/12/02 01:06:19;;;;;;;47.00;21.20;;;;;;;2.65;100.00;102522.00;1031688;28;20383;-79
2022/12/02 01:06:51;;;;;;;46.50;23.67;;;;;;;2.65;100.00;102522.00;1028732;28;20309;-79
2022/12/02 01:07:22;;;;;;;57.10;23.50;;;;;;;2.66;100.00;102515.78;1031207;28;20301;-80
2022/12/02 01:07:54;;;;;;;48.92;23.83;;;;;;;2.65;100.00;102514.09;1033285;28;20308;-79
2022/12/02 01:08:26;;;;;;;51.28;23.30;;;;;;;2.62;100.00;102519.59;1027964;28;20302;-80
2022/12/02 01:08:58;;;;;;;47.90;23.13;;;;;;;2.66;100.00;102515.78;1033798;28;20297;-80
2022/12/02 01:09:29;;;;;;;53.53;24.48;;;;;;;2.64;100.00;102515.06;1035313;28;20378;-79
2022/12/02 01:10:01;;;;;;;45.97;22.55;;;;;;;2.59;100.00;102517.22;1036941;28;20435;-79
2022/12/02 01:10:32;;;;;;;48.38;22.23;;;;;;;2.61;100.00;102515.31;1040626;28;20447;-79
2022/12/02 01:11:04;;;;;;;51.60;23.60;;;;;;;2.61;100.00;102520.56;1037261;28;20357;-80
2022/12/02 01:11:36;;;;;;;45.17;22.83;;;;;;;2.57;100.00;102518.31;1029491;28;20321;-79
2022/12/02 01:12:07;;;;;;;55.50;23.95;;;;;;;2.58;100.00;102518.19;1029975;28;20428;-79
2022/12/02 01:12:39;;;;;;;51.90;24.83;;;;;;;2.59;100.00;102519.03;1031748;28;20325;-79
2022/12/02 01:13:10;;;;;;;51.92;24.13;;;;;;;2.62;100.00;102519.59;1031591;28;20301;-79
2022/12/02 01:13:42;;;;;;;44.80;21.67;;;;;;;2.60;100.00;102518.06;1032623;28;20297;-79
2022/12/02 01:14:13;;;;;;;51.35;23.45;;;;;;;2.65;100.00;102515.91;1035064;28;20316;-79
2022/12/02 01:14:45;;;;;;;52.78;24.52;;;;;;;2.68;100.00;102516.47;1025656;28;20449;-79
2022/12/02 01:15:16;;;;;;;47.55;21.67;;;;;;;2.68;100.00;102516.47;1028345;28;20384;-80
2022/12/02 01:15:48;;;;;;;47.67;21.10;;;;;;;2.68;100.00;102513.84;1027153;28;20366;-79
2022/12/02 01:16:20;;;;;;;51.92;22.90;;;;;;;2.68;100.00;102521.75;1027865;28;20309;-80
2022/12/02 01:16:51;;;;;;;50.10;23.27;;;;;;;2.71;100.00;102518.84;1033339;28;20698;-79
2022/12/02 01:17:23;;;;;;;46.55;22.30;;;;;;;2.71;100.00;102521.50;1031130;28;20304;-79
2022/12/02 01:17:55;;;;;;;48.47;24.35;;;;;;;2.73;100.00;102519.56;1036450;28;20446;-79
2022/12/02 01:18:26;;;;;;;47.15;23.25;;;;;;;2.71;100.00;102518.84;1036264;28;20431;-79
2022/12/02 01:18:58;;;;;;;50.90;21.55;;;;;;;2.74;100.00;102515.19;1039788;28;20430;-79
2022/12/02 01:19:29;;;;;;;47.67;23.30;;;;;;;2.72;100.00;102517.91;1039144;28;20386;-80
2022/12/02 01:20:01;;;;;;;52.95;23.80;;;;;;;2.75;100.00;102512.41;1035469;28;20378;-80
2022/12/02 01:20:33;;;;;;;53.38;23.75;;;;;;;2.76;100.00;102514.09;1031114;28;20435;-80
2022/12/02 01:21:04;;;;;;;50.75;21.23;;;;;;;2.77;100.00;102515.75;1027080;28;20348;-79
2022/12/02 01:21:36;;;;;;;52.45;23.60;;;;;;;2.77;100.00;102513.13;1023006;29;20505;-80
2022/12/02 01:22:07;;;;;;;46.13;22.40;;;;;;;2.76;100.00;102516.72;1026467;28;20368;-79
2022/12/02 01:22:39;;;;;;;46.47;22.98;;;;;;;2.77;100.00;102507.88;1031647;28;20297;-79
2022/12/02 01:23:11;;;;;;;42.50;20.85;;;;;;;2.77;100.00;102507.88;1031703;28;20301;-79
2022/12/02 01:23:42;;;;;;;50.22;22.20;;;;;;;2.77;100.00;102510.50;1030567;28;20307;-79
2022/12/02 01:24:14;;;;;;;50.80;22.45;;;;;;;2.76;100.00;102506.19;1032544;28;20300;-79
2022/12/02 01:24:45;;;;;;;45.00;21.15;;;;;;;2.76;100.00;102508.81;1033563;28;20739;-80
2022/12/02 01:25:17;;;;;;;51.17;20.92;;;;;;;2.73;100.00;102509.03;1034986;28;20374;-79
2022/12/02 01:25:48;;;;;;;48.40;22.63;;;;;;;2.71;100.00;102510.97;1028533;28;20337;-79
2022/12/02 01:26:20;;;;;;;50.00;24.45;;;;;;;2.72;100.00;102503.91;1027812;28;20298;-79
2022/12/02 01:26:51;;;;;;;44.85;21.33;;;;;;;2.66;100.00;102507.88;1030874;28;20814;-80
2022/12/02 01:27:23;;;;;;;45.30;22.30;;;;;;;2.69;100.00;102512.88;1029054;28;20316;-79
2022/12/02 01:27:55;;;;;;;47.90;23.17;;;;;;;2.68;100.00;102511.22;1035049;28;20845;-79
2022/12/02 01:28:27;;;;;;;52.53;25.55;;;;;;;2.69;100.00;102507.63;1027735;28;20325;-79
2022/12/02 01:28:59;;;;;;;51.25;24.73;;;;;;;2.69;100.00;102509.41;1034311;28;20312;-80
2022/12/02 01:29:31;;;;;;;53.80;24.98;;;;;;;2.69;100.00;102507.63;1041428;28;20393;-79
2022/12/02 01:30:04;;;;;;;45.17;23.02;;;;;;;2.71;100.00;102513.59;1039114;28;20741;-79
2022/12/02 01:30:36;;;;;;;45.67;20.42;;;;;;;2.72;100.00;102517.06;1038555;28;20728;-79
2022/12/02 01:31:07;;;;;;;50.45;24.33;;;;;;;2.62;100.00;102510.88;1033190;28;20384;-79
2022/12/02 01:31:39;;;;;;;46.90;24.33;;;;;;;2.60;100.00;102518.91;1030486;28;20392;-79
2022/12/02 01:32:10;;;;;;;42.60;21.23;;;;;;;2.64;100.00;102514.22;1034185;28;20292;-79
2022/12/02 01:32:42;;;;;;;56.03;23.13;;;;;;;2.72;100.00;102517.91;1036876;28;20733;-80
2022/12/02 01:33:14;;;;;;;48.78;22.27;;;;;;;2.71;100.00;102513.59;1042720;28;20327;-80
2022/12/02 01:33:45;;;;;;;50.13;23.45;;;;;;;2.71;100.00;102512.75;1040496;28;20343;-79
2022/12/02 01:34:17;;;;;;;45.30;22.08;;;;;;;2.71;100.00;102516.22;1043953;28;20326;-80
2022/12/02 01:34:48;;;;;;;47.50;22.65;;;;;;;2.70;100.00;102514.56;1036100;28;21082;-79
2022/12/02 01:35:20;;;;;;;40.55;21.75;;;;;;;2.73;100.00;102514.31;1035947;28;20311;-79
2022/12/02 01:35:52;;;;;;;44.50;21.58;;;;;;;2.71;100.00;102518.84;1027935;28;20374;-79
2022/12/02 01:36:23;;;;;;;43.00;19.50;;;;;;;2.72;100.00;102515.28;1026717;28;20295;-80
2022/12/02 01:36:56;;;;;;;42.83;20.85;;;;;;;2.73;100.00;102513.47;1031229;28;20428;-80
2022/12/02 01:37:27;;;;;;;48.08;23.70;;;;;;;2.69;100.00;102522.56;1032398;28;20367;-79
2022/12/02 01:37:59;;;;;;;53.72;23.33;;;;;;;2.73;100.00;102514.31;1038040;28;20359;-79
2022/12/02 01:38:31;;;;;;;42.17;21.50;;;;;;;2.75;100.00;102517.69;1029783;28;20305;-79
2022/12/02 01:39:03;;;;;;;42.85;22.20;;;;;;;2.76;100.00;102514.09;1035715;28;20463;-80
2022/12/02 01:39:34;;;;;;;43.30;22.98;;;;;;;2.74;100.00;102516.00;1028181;28;20356;-80
2022/12/02 01:40:07;;;;;;;44.00;21.15;;;;;;;2.75;100.00;102512.41;1031930;28;20897;-79
2022/12/02 01:40:39;;;;;;;46.78;20.25;;;;;;;2.78;100.00;102517.44;1040678;28;20291;-79
2022/12/02 01:41:11;;;;;;;48.97;22.52;;;;;;;2.79;100.00;102513.00;1044387;28;20299;-79
2022/12/02 01:41:42;;;;;;;51.70;22.48;;;;;;;2.78;100.00;102512.16;1034289;28;20394;-79
2022/12/02 01:42:14;;;;;;;39.35;20.75;;;;;;;2.82;100.00;102511.91;1030849;28;20467;-79
2022/12/02 01:42:46;;;;;;;47.42;22.20;;;;;;;2.84;100.00;102504.72;1030396;28;20309;-79
2022/12/02 01:43:18;;;;;;;55.53;25.70;;;;;;;2.86;100.00;102508.06;1024282;28;20389;-80
2022/12/02 01:43:49;;;;;;;48.78;22.08;;;;;;;2.84;100.00;102504.72;1028280;28;21082;-79
2022/12/02 01:44:21;;;;;;;51.90;21.88;;;;;;;2.83;100.00;102508.31;1032226;28;20316;-80
2022/12/02 01:44:52;;;;;;;48.78;22.52;;;;;;;2.77;100.00;102507.88;1034678;28;20289;-79
2022/12/02 01:45:25;;;;;;;46.42;20.17;;;;;;;2.77;100.00;102509.66;1031664;28;20418;-80
2022/12/02 01:45:57;;;;;;;55.50;22.80;;;;;;;2.76;100.00;102514.09;1026973;28;20286;-80
2022/12/02 01:46:30;;;;;;;45.50;22.63;;;;;;;2.63;100.00;102518.66;1024147;28;20663;-79
2022/12/02 01:47:02;;;;;;;44.60;22.27;;;;;;;2.65;100.00;102506.22;1027798;28;20305;-80
2022/12/02 01:47:35;;;;;;;47.92;22.00;;;;;;;2.69;100.00;102510.25;1033624;28;20336;-79
2022/12/02 01:48:06;;;;;;;41.47;21.10;;;;;;;2.70;100.00;102509.28;1040121;28;20287;-79
2022/12/02 01:48:38;;;;;;;42.28;20.40;;;;;;;2.72;100.00;102511.81;1034034;28;20343;-80
2022/12/02 01:49:09;;;;;;;48.40;19.58;;;;;;;2.71;100.00;102510.97;1035377;28;20371;-79
2022/12/02 01:49:41;;;;;;;46.20;22.05;;;;;;;2.72;100.00;102503.91;1033391;28;20376;-80
2022/12/02 01:50:14;;;;;;;48.40;23.10;;;;;;;2.72;100.00;102517.91;1035630;28;20455;-79
2022/12/02 01:50:47;;;;;;;48.13;21.40;;;;;;;2.71;100.00;102513.59;1035399;28;20311;-79
2022/12/02 01:51:18;;;;;;;53.10;22.25;;;;;;;2.68;100.00;102507.75;1034214;28;20301;-79
2022/12/02 01:51:50;;;;;;;43.33;20.50;;;;;;;2.68;100.00;102511.22;1033185;28;20336;-80
2022/12/02 01:52:22;;;;;;;52.05;21.42;;;;;;;2.68;100.00;102516.47;1029096;28;20297;-79
2022/12/02 01:52:54;;;;;;;40.90;20.52;;;;;;;2.65;100.00;102514.09;1036803;28;20386;-80
2022/12/02 01:53:29;;;;;;;49.20;21.38;;;;;;;2.68;100.00;102510.38;1035884;28;20368;-79
2022/12/02 01:54:00;;;;;;;40.60;21.25;;;;;;;2.69;100.00;102507.63;1019986;29;20303;-79
2022/12/02 01:54:33;;;;;;;50.97;20.50;;;;;;;2.70;100.00;102519.81;1027862;28;20397;-79
2022/12/02 01:55:08;;;;;;;55.58;22.67;;;;;;;2.70;100.00;102513.72;1023987;28;20717;-79
2022/12/02 01:55:40;;;;;;;45.05;21.05;;;;;;;2.68;100.00;102516.47;1025310;28;21143;-79
2022/12/02 01:56:11;;;;;;;47.55;21.30;;;;;;;2.72;100.00;102512.63;1025368;28;20290;-79
2022/12/02 01:56:43;;;;;;;53.70;21.67;;;;;;;2.72;100.00;102515.28;1026170;28;20807;-79
2022/12/02 01:57:15;;;;;;;36.75;18.95;;;;;;;2.71;100.00;102512.75;1020974;28;20378;-79
2022/12/02 01:57:47;;;;;;;42.90;19.00;;;;;;;2.69;100.00;102518.16;1029871;28;20309;-80
2022/12/02 01:58:24;;;;;;;41.72;20.25;;;;;;;2.63;100.00;102518.66;1028766;28;20301;-80
2022/12/02 01:58:56;;;;;;;40.42;20.17;;;;;;;2.63;100.00;102523.91;1026287;28;20815;-79
2022/12/02 01:59:27;;;;;;;41.03;21.98;;;;;;;2.64;100.00;102519.47;1032016;28;20392;-79
2022/12/02 01:59:59;;;;;;;45.47;21.48;;;;;;;2.66;100.00;102507.88;1036228;28;20652;-79
2022/12/02 02:00:31;;;;;;;48.22;21.17;;;;;;;2.68;100.00;102510.38;1037300;28;20292;-79
2022/12/02 02:01:02;;;;;;;44.80;21.83;;;;;;;2.71;100.00;102516.22;1033149;28;20392;-79
2022/12/02 02:01:34;;;;;;;46.55;20.52;;;;;;;2.70;100.00;102522.44;1032774;28;20733;-79
2022/12/02 02:02:25;;;;;;;41.72;21.67;;;;;;;2.73;100.00;102513.47;1030102;28;20696;-79
2022/12/02 02:02:56;;;;;;;39.42;18.80;;;;;;;2.75;100.00;102512.41;1038291;28;20300;-79
2022/12/02 02:03:28;;;;;;;44.58;20.33;;;;;;;2.76;100.00;102513.25;1035836;28;20391;-79
2022/12/02 02:04:01;;;;;;;44.50;19.88;;;;;;;2.75;100.00;102519.47;1037938;28;20319;-79
2022/12/02 02:04:32;;;;;;;51.45;23.35;;;;;;;2.74;100.00;102509.91;1037411;28;20758;-80
2022/12/02 02:05:07;;;;;;;47.08;23.02;;;;;;;2.77;100.00;102515.75;1031203;28;20293;-80
2022/12/02 02:05:39;;;;;;;46.63;21.15;;;;;;;2.78;100.00;102506.06;1029438;28;20302;-79
2022/12/02 02:06:10;;;;;;;48.08;23.45;;;;;;;2.78;100.00;102506.91;1027823;28;20672;-79
2022/12/02 02:06:45;;;;;;;46.15;19.88;;;;;;;2.74;100.00;102510.75;1027105;28;20381;-79
2022/12/02 02:07:17;;;;;;;51.47;21.45;;;;;;;2.75;100.00;102507.16;1024661;28;20307;-79
2022/12/02 02:07:51;;;;;;;48.65;23.38;;;;;;;2.74;100.00;102505.50;1027110;28;20753;-79
2022/12/02 02:08:23;;;;;;;48.05;20.58;;;;;;;2.76;100.00;102508.81;1031962;28;20306;-79
2022/12/02 02:08:56;;;;;;;50.67;23.23;;;;;;;2.76;100.00;102505.34;1030446;28;20661;-79
2022/12/02 02:09:27;;;;;;;45.28;21.83;;;;;;;2.76;100.00;102503.56;1032685;28;20313;-80
2022/12/02 02:09:59;;;;;;;46.72;21.90;;;;;;;2.78;100.00;102501.63;1034749;28;20296;-79
2022/12/02 02:10:32;;;;;;;47.05;23.77;;;;;;;2.77;100.00;102509.66;1032099;28;20312;-79
2022/12/02 02:11:04;;;;;;;44.13;19.10;;;;;;;2.76;100.00;102503.56;1035800;28;20290;-80
2022/12/02 02:11:37;;;;;;;44.63;20.65;;;;;;;2.74;100.00;102505.50;1033643;28;20297;-79
2022/12/02 02:12:08;;;;;;;46.22;20.98;;;;;;;2.74;100.00;102504.66;1033246;28;20301;-80
2022/12/02 02:12:40;;;;;;;46.13;20.48;;;;;;;2.75;100.00;102509.78;1024950;28;20302;-79
2022/12/02 02:13:13;;;;;;;46.70;20.65;;;;;;;2.72;100.00;102499.47;1026413;28;20302;-79
2022/12/02 02:13:45;;;;;;;52.50;23.33;;;;;;;2.74;100.00;102502.84;1035855;28;20390;-79
2022/12/02 02:14:18;;;;;;;39.65;19.88;;;;;;;2.76;100.00;102503.56;1033160;28;20848;-79
2022/12/02 02:14:49;;;;;;;52.28;20.98;;;;;;;2.77;100.00;102505.22;1033045;28;20301;-79
2022/12/02 02:15:22;;;;;;;44.85;20.88;;;;;;;2.79;100.00;102508.56;1032501;28;20925;-79
2022/12/02 02:15:54;;;;;;;47.75;22.67;;;;;;;2.82;100.00;102507.50;1033843;28;20804;-79
2022/12/02 02:16:25;;;;;;;49.88;22.48;;;;;;;2.79;100.00;102505.94;1031855;28;20795;-80
2022/12/02 02:16:57;;;;;;;56.00;22.60;;;;;;;2.78;100.00;102501.63;1032036;28;20301;-80
2022/12/02 02:17:29;;;;;;;44.15;21.73;;;;;;;2.78;100.00;102506.91;1024927;28;20302;-81
2022/12/02 02:18:00;;;;;;;53.63;23.42;;;;;;;2.77;100.00;102504.41;1032048;28;20304;-79
2022/12/02 02:18:36;;;;;;;43.40;22.40;;;;;;;2.76;100.00;102502.72;1034488;28;20356;-79
2022/12/02 02:19:11;;;;;;;48.85;21.75;;;;;;;2.72;100.00;102503.91;1029980;28;20351;-80
2022/12/02 02:19:43;;;;;;;53.47;21.67;;;;;;;2.74;100.00;102499.38;1027218;28;20665;-80
2022/12/02 02:20:18;;;;;;;48.58;19.75;;;;;;;2.75;100.00;102503.69;1033449;28;20317;-80
2022/12/02 02:20:51;;;;;;;46.55;21.05;;;;;;;2.74;100.00;102508.13;1033001;28;20304;-81
2022/12/02 02:21:27;;;;;;;47.55;21.88;;;;;;;2.71;100.00;102508.34;1036212;28;20339;-80
2022/12/02 02:22:00;;;;;;;50.05;22.40;;;;;;;2.66;100.00;102507.03;1036954;28;20289;-81
2022/12/02 02:22:40;;;;;;;50.87;22.03;;;;;;;2.68;100.00;102500.69;1033946;28;20305;-80
2022/12/02 02:23:21;;;;;;;42.35;21.42;;;;;;;2.67;100.00;102504.28;1034426;28;20990;-81
2022/12/02 02:23:53;;;;;;;51.67;21.52;;;;;;;2.68;100.00;102502.50;1031412;28;21159;-80
2022/12/02 02:24:24;;;;;;;48.47;21.92;;;;;;;2.66;100.00;102502.63;1032030;28;20687;-80
2022/12/02 02:24:57;;;;;;;50.90;22.63;;;;;;;2.68;100.00;102497.22;1032834;28;20305;-80
2022/12/02 02:25:31;;;;;;;49.47;21.45;;;;;;;2.67;100.00;102496.41;1035382;28;20356;-80
2022/12/02 02:26:03;;;;;;;44.50;20.25;;;;;;;2.71;100.00;102495.19;1031650;28;20313;-80
2022/12/02 02:26:38;;;;;;;48.70;23.23;;;;;;;2.71;100.00;102495.19;1029855;28;20353;-80
2022/12/02 02:27:10;;;;;;;48.40;20.58;;;;;;;2.69;100.00;102497.09;1031631;28;20312;-80
2022/12/02 02:27:45;;;;;;;47.38;21.40;;;;;;;2.70;100.00;102498.78;1031582;28;20304;-80
2022/12/02 02:28:17;;;;;;;44.95;22.15;;;;;;;2.71;100.00;102495.19;1037957;28;20849;-80
2022/12/02 02:28:49;;;;;;;47.58;21.83;;;;;;;2.72;100.00;102496.84;1034338;28;20308;-80
2022/12/02 02:29:21;;;;;;;50.90;23.30;;;;;;;2.70;100.00;102488.25;1035467;28;20779;-80
2022/12/02 02:29:52;;;;;;;45.10;21.20;;;;;;;2.72;100.00;102496.84;1033982;28;20328;-80
2022/12/02 02:30:27;;;;;;;43.75;21.75;;;;;;;2.71;100.00;102489.91;1032591;28;20348;-80
2022/12/02 02:30:59;;;;;;;47.03;23.00;;;;;;;2.72;100.00;102494.22;1027562;28;20715;-80
2022/12/02 02:31:38;;;;;;;45.67;20.95;;;;;;;2.73;100.00;102498.53;1029952;28;20380;-80
2022/12/02 02:32:10;;;;;;;57.10;24.13;;;;;;;2.72;100.00;102491.59;1027253;28;20349;-80